Погода Новосевастопольскоена неделю

Республика Адыгея, Россия

17 - 23 июля
  • 17июля
    Сегодня
    +25°
    +40°
    Небольшая облачность
    ВремяПогодаТемператураВлажностьДавлениеВетер, м/сВероятность осадков
    00:00Ясно и безоблачно+29°C28 %751 мм5.0 м/с2 %
    03:00Ясно и безоблачно+26°C31 %751 мм4.7 м/с2 %
    06:00Ясно и безоблачно+26°C34 %752 мм4.5 м/с2 %
    09:00Практически безоблачно+33°C28 %753 мм5.3 м/с2 %
    12:00Ясно и безоблачно+38°C22 %753 мм7.0 м/с2 %
    15:00Небольшая облачность+39°C19 %752 мм6.7 м/с2 %
    18:00Практически безоблачно+38°C18 %751 мм6.8 м/с2 %
    21:00Ясно и безоблачно+32°C25 %752 мм7.5 м/с2 %
  • 18июля
    Четверг
    +22°
    +40°
    Ясно и безоблачно
    ВремяПогодаТемператураВлажностьДавлениеВетер, м/сВероятность осадков
    00:00Ясно и безоблачно+29°C27 %753 мм6.1 м/с2 %
    03:00Ясно и безоблачно+27°C25 %753 мм4.7 м/с2 %
    06:00Ясно и безоблачно+25°C29 %753 мм3.7 м/с2 %
    09:00Ясно и безоблачно+33°C24 %753 мм4.5 м/с2 %
    12:00Ясно и безоблачно+38°C18 %753 мм6.1 м/с2 %
    15:00Ясно и безоблачно+39°C19 %752 мм5.4 м/с2 %
    18:00Ясно и безоблачно+38°C16 %751 мм6.2 м/с2 %
    21:00Ясно и безоблачно+31°C22 %752 мм4.3 м/с2 %
  • 19июля
    Пятница
    +24°
    +40°
    Ясно и безоблачно
    ВремяПогодаТемператураВлажностьДавлениеВетер, м/сВероятность осадков
    00:00Ясно и безоблачно+27°C27 %751 мм3.8 м/с2 %
    03:00Ясно и безоблачно+25°C31 %751 мм2.4 м/с2 %
    06:00Ясно и безоблачно+24°C38 %751 мм2.6 м/с2 %
    09:00Ясно и безоблачно+33°C26 %751 мм2.7 м/с2 %
    12:00Ясно и безоблачно+39°C18 %750 мм4.1 м/с2 %
    15:00Ясно и безоблачно+40°C17 %749 мм3.3 м/с2 %
    18:00Ясно и безоблачно+38°C17 %748 мм3.1 м/с2 %
    21:00Ясно и безоблачно+31°C25 %748 мм1.7 м/с2 %
  • 20июля
    Суббота
    +24°
    +39°
    Небольшая облачность
    ВремяПогодаТемператураВлажностьДавлениеВетер, м/сВероятность осадков
    00:00Ясно и безоблачно+29°C35 %748 мм4.0 м/с2 %
    03:00Ясно и безоблачно+26°C45 %748 мм2.8 м/с2 %
    06:00Ясно и безоблачно+26°C51 %749 мм2.0 м/с2 %
    09:00Ясно и безоблачно+32°C40 %749 мм2.3 м/с2 %
    12:00Ясно и безоблачно+37°C29 %748 мм3.6 м/с6 %
    15:00Небольшая облачность+39°C27 %749 мм2.5 м/с28 %
    18:00Облачно с прояснениями+34°C33 %749 мм4.2 м/с32 %
    21:00Небольшая облачность+29°C44 %750 мм1.7 м/с2 %
  • 21июля
    Воскресенье
    +24°
    +39°
    Практически безоблачно
    ВремяПогодаТемператураВлажностьДавлениеВетер, м/сВероятность осадков
    00:00Ясно и безоблачно+27°C54 %750 мм1.8 м/с2 %
    03:00Ясно и безоблачно+25°C61 %750 мм1.4 м/с2 %
    06:00Ясно и безоблачно+25°C63 %750 мм1.0 м/с2 %
    09:00Ясно и безоблачно+31°C45 %751 мм1.2 м/с2 %
    12:00Ясно и безоблачно+36°C33 %750 мм1.2 м/с2 %
    15:00Практически безоблачно+37°C32 %750 мм4.0 м/с7 %
    18:00Ясно и безоблачно+36°C34 %750 мм3.8 м/с10 %
    21:00Ясно и безоблачно+30°C43 %750 мм2.0 м/с5 %
Мы используем cookies
Соглашаюсь